This is the latest recevied weather packets stored in our database for station/object IW5CTE-13. If no packets are shown the sender has not sent any weather packets the latest 10 day(s).
| Time | Temp. | Humidity | Pressure | Rain* | Wind** | Luminosity | Snow |
|---|---|---|---|---|---|---|---|
| 1788513143 | 35.56° C | 44% | 1019.7 hPa | - | - | - | - |
| 1788512544 | 35.56° C | 43% | 1019.7 hPa | - | - | - | - |
| 1788511943 | 35° C | 42% | 1019.7 hPa | - | - | - | - |
| 1788511344 | 34.44° C | 43% | 1019.7 hPa | - | - | - | - |
| 1788510744 | 34.44° C | 44% | 1019.7 hPa | - | - | - | - |
| 1788510143 | 33.89° C | 43% | 1019.7 hPa | - | - | - | - |
| 1788509543 | 33.33° C | 44% | 1019.5 hPa | - | - | - | - |
| 1788508944 | 32.78° C | 46% | 1019.5 hPa | - | - | - | - |
| 1788508344 | 32.78° C | 48% | 1019.5 hPa | - | - | - | - |
| 1788507744 | 32.22° C | 49% | 1019.4 hPa | - | - | - | - |
| 1788507144 | 31.11° C | 47% | 1019.4 hPa | - | - | - | - |
| 1788506545 | 30.56° C | 48% | 1019.3 hPa | - | - | - | - |
| 1788505944 | 29.44° C | 52% | 1019.4 hPa | - | - | - | - |
| 1788505344 | 27.78° C | 55% | 1019.3 hPa | - | - | - | - |
| 1788504743 | 26.67° C | 60% | 1019.4 hPa | - | - | - | - |
| 1788504143 | 25° C | 66% | 1019.4 hPa | - | - | - | - |
| 1788503543 | 24.44° C | 67% | 1019.4 hPa | - | - | - | - |
| 1788502944 | 23.89° C | 70% | 1019.4 hPa | - | - | - | - |
| 1788502344 | 23.33° C | 69% | 1019.4 hPa | - | - | - | - |
| 1788501744 | 23.33° C | 69% | 1019.3 hPa | - | - | - | - |
| 1788501143 | 23.33° C | 69% | 1019.4 hPa | - | - | - | - |
| 1788500543 | 23.33° C | 68% | 1019.1 hPa | - | - | - | - |
| 1788499943 | 22.78° C | 69% | 1019.2 hPa | - | - | - | - |
| 1788499343 | 22.78° C | 69% | 1019.1 hPa | - | - | - | - |
| 1788498744 | 22.78° C | 68% | 1019 hPa | - | - | - | - |
* Rain since midnight (hover to see other rain measurements)
** Current wind speed in m/s (hover to see current wind gust speed)